sensor_id;sensor_type;location;lat;lon;timestamp;P1;durP1;ratioP1;P2;durP2;ratioP2
54157;SDS011;40065;49.894;10.358;2023-02-02T00:04:22;2.45;;;1.00;;
54157;SDS011;40065;49.894;10.358;2023-02-02T00:09:27;1.60;;;0.63;;
54157;SDS011;40065;49.894;10.358;2023-02-02T00:14:30;4.32;;;0.80;;
54157;SDS011;40065;49.894;10.358;2023-02-02T00:19:32;4.13;;;0.80;;
54157;SDS011;40065;49.894;10.358;2023-02-02T00:24:34;1.08;;;0.60;;
54157;SDS011;40065;49.894;10.358;2023-02-02T00:29:36;1.20;;;0.43;;
54157;SDS011;40065;49.894;10.358;2023-02-02T00:34:37;1.17;;;0.40;;
54157;SDS011;40065;49.894;10.358;2023-02-02T00:39:39;0.70;;;0.40;;
54157;SDS011;40065;49.894;10.358;2023-02-02T00:44:41;1.05;;;0.50;;
54157;SDS011;40065;49.894;10.358;2023-02-02T00:50:02;4.05;;;0.65;;
54157;SDS011;40065;49.894;10.358;2023-02-02T00:55:05;0.70;;;0.40;;
54157;SDS011;40065;49.894;10.358;2023-02-02T01:00:10;1.13;;;0.40;;
54157;SDS011;40065;49.894;10.358;2023-02-02T01:05:14;3.85;;;0.80;;
54157;SDS011;40065;49.894;10.358;2023-02-02T01:10:17;1.90;;;0.80;;
54157;SDS011;40065;49.894;10.358;2023-02-02T01:15:19;1.60;;;0.40;;
54157;SDS011;40065;49.894;10.358;2023-02-02T01:20:22;1.15;;;0.52;;
54157;SDS011;40065;49.894;10.358;2023-02-02T01:25:26;1.23;;;0.30;;
54157;SDS011;40065;49.894;10.358;2023-02-02T01:30:28;1.40;;;0.30;;
54157;SDS011;40065;49.894;10.358;2023-02-02T01:35:30;1.25;;;0.30;;
54157;SDS011;40065;49.894;10.358;2023-02-02T01:40:32;0.32;;;0.28;;
54157;SDS011;40065;49.894;10.358;2023-02-02T01:45:34;0.47;;;0.30;;
54157;SDS011;40065;49.894;10.358;2023-02-02T01:50:36;0.30;;;0.20;;
54157;SDS011;40065;49.894;10.358;2023-02-02T01:55:39;1.75;;;0.35;;
54157;SDS011;40065;49.894;10.358;2023-02-02T02:00:42;0.68;;;0.30;;
54157;SDS011;40065;49.894;10.358;2023-02-02T02:05:54;0.30;;;0.20;;
54157;SDS011;40065;49.894;10.358;2023-02-02T02:11:03;0.80;;;0.28;;
54157;SDS011;40065;49.894;10.358;2023-02-02T02:16:09;1.77;;;0.28;;
54157;SDS011;40065;49.894;10.358;2023-02-02T02:21:31;0.70;;;0.30;;
54157;SDS011;40065;49.894;10.358;2023-02-02T02:27:10;1.15;;;0.30;;
54157;SDS011;40065;49.894;10.358;2023-02-02T02:33:21;1.02;;;0.30;;
54157;SDS011;40065;49.894;10.358;2023-02-02T02:38:10;0.70;;;0.20;;
54157;SDS011;40065;49.894;10.358;2023-02-02T02:43:18;0.57;;;0.30;;
54157;SDS011;40065;49.894;10.358;2023-02-02T02:48:27;0.98;;;0.30;;
54157;SDS011;40065;49.894;10.358;2023-02-02T02:53:30;2.37;;;0.30;;
54157;SDS011;40065;49.894;10.358;2023-02-02T03:03:52;0.60;;;0.40;;
54157;SDS011;40065;49.894;10.358;2023-02-02T03:09:07;1.52;;;0.40;;
54157;SDS011;40065;49.894;10.358;2023-02-02T03:14:16;0.73;;;0.32;;
54157;SDS011;40065;49.894;10.358;2023-02-02T03:19:18;0.47;;;0.30;;
54157;SDS011;40065;49.894;10.358;2023-02-02T03:24:20;0.40;;;0.30;;
54157;SDS011;40065;49.894;10.358;2023-02-02T03:29:22;1.15;;;0.40;;
54157;SDS011;40065;49.894;10.358;2023-02-02T03:34:24;2.20;;;0.50;;
54157;SDS011;40065;49.894;10.358;2023-02-02T03:39:25;0.55;;;0.30;;
54157;SDS011;40065;49.894;10.358;2023-02-02T03:44:27;0.93;;;0.50;;
54157;SDS011;40065;49.894;10.358;2023-02-02T03:49:29;0.85;;;0.38;;
54157;SDS011;40065;49.894;10.358;2023-02-02T03:54:32;0.40;;;0.20;;
54157;SDS011;40065;49.894;10.358;2023-02-02T03:59:34;0.93;;;0.50;;
54157;SDS011;40065;49.894;10.358;2023-02-02T04:04:36;1.95;;;0.60;;
54157;SDS011;40065;49.894;10.358;2023-02-02T04:09:38;2.15;;;0.50;;
54157;SDS011;40065;49.894;10.358;2023-02-02T04:14:39;1.02;;;0.50;;
54157;SDS011;40065;49.894;10.358;2023-02-02T04:19:41;0.70;;;0.40;;
54157;SDS011;40065;49.894;10.358;2023-02-02T04:24:43;2.80;;;0.50;;
54157;SDS011;40065;49.894;10.358;2023-02-02T04:29:45;1.35;;;0.32;;
54157;SDS011;40065;49.894;10.358;2023-02-02T04:34:47;1.08;;;0.50;;
54157;SDS011;40065;49.894;10.358;2023-02-02T04:39:49;1.08;;;0.40;;
54157;SDS011;40065;49.894;10.358;2023-02-02T04:44:51;1.83;;;0.60;;
54157;SDS011;40065;49.894;10.358;2023-02-02T04:49:52;1.60;;;0.60;;
54157;SDS011;40065;49.894;10.358;2023-02-02T04:54:54;1.80;;;1.02;;
54157;SDS011;40065;49.894;10.358;2023-02-02T04:59:56;3.78;;;1.77;;
54157;SDS011;40065;49.894;10.358;2023-02-02T05:04:58;7.20;;;3.35;;
54157;SDS011;40065;49.894;10.358;2023-02-02T05:10:00;5.82;;;3.10;;
54157;SDS011;40065;49.894;10.358;2023-02-02T05:15:02;6.18;;;2.58;;
54157;SDS011;40065;49.894;10.358;2023-02-02T05:20:06;4.10;;;2.80;;
54157;SDS011;40065;49.894;10.358;2023-02-02T05:25:09;5.90;;;3.53;;
54157;SDS011;40065;49.894;10.358;2023-02-02T05:30:11;4.07;;;2.40;;
54157;SDS011;40065;49.894;10.358;2023-02-02T05:35:14;6.05;;;3.47;;
54157;SDS011;40065;49.894;10.358;2023-02-02T05:40:16;6.45;;;3.78;;
54157;SDS011;40065;49.894;10.358;2023-02-02T05:45:18;3.20;;;1.88;;
54157;SDS011;40065;49.894;10.358;2023-02-02T05:50:20;3.42;;;1.98;;
54157;SDS011;40065;49.894;10.358;2023-02-02T05:55:35;4.97;;;2.20;;
54157;SDS011;40065;49.894;10.358;2023-02-02T06:00:37;4.38;;;2.13;;
54157;SDS011;40065;49.894;10.358;2023-02-02T06:05:38;3.63;;;1.90;;
54157;SDS011;40065;49.894;10.358;2023-02-02T06:10:40;3.85;;;2.20;;
54157;SDS011;40065;49.894;10.358;2023-02-02T06:15:42;4.05;;;2.50;;
54157;SDS011;40065;49.894;10.358;2023-02-02T06:20:44;3.83;;;2.25;;
54157;SDS011;40065;49.894;10.358;2023-02-02T06:25:47;5.75;;;2.80;;
54157;SDS011;40065;49.894;10.358;2023-02-02T06:30:49;3.63;;;2.40;;
54157;SDS011;40065;49.894;10.358;2023-02-02T06:35:51;4.60;;;3.00;;
54157;SDS011;40065;49.894;10.358;2023-02-02T06:40:53;6.68;;;3.45;;
54157;SDS011;40065;49.894;10.358;2023-02-02T06:45:57;5.40;;;3.42;;
54157;SDS011;40065;49.894;10.358;2023-02-02T06:51:00;4.47;;;2.70;;
54157;SDS011;40065;49.894;10.358;2023-02-02T06:56:02;7.53;;;3.88;;
54157;SDS011;40065;49.894;10.358;2023-02-02T07:01:08;4.22;;;2.60;;
54157;SDS011;40065;49.894;10.358;2023-02-02T07:16:18;6.97;;;3.50;;
54157;SDS011;40065;49.894;10.358;2023-02-02T07:21:21;5.95;;;3.40;;
54157;SDS011;40065;49.894;10.358;2023-02-02T07:26:25;5.15;;;3.13;;
54157;SDS011;40065;49.894;10.358;2023-02-02T07:31:27;8.02;;;4.80;;
54157;SDS011;40065;49.894;10.358;2023-02-02T07:36:29;7.47;;;4.15;;
54157;SDS011;40065;49.894;10.358;2023-02-02T07:41:32;6.72;;;3.97;;
54157;SDS011;40065;49.894;10.358;2023-02-02T07:46:35;7.83;;;4.30;;
54157;SDS011;40065;49.894;10.358;2023-02-02T07:51:38;5.80;;;3.92;;
54157;SDS011;40065;49.894;10.358;2023-02-02T07:56:46;8.45;;;5.15;;
54157;SDS011;40065;49.894;10.358;2023-02-02T08:01:48;6.57;;;4.20;;
54157;SDS011;40065;49.894;10.358;2023-02-02T08:06:50;8.98;;;4.50;;
54157;SDS011;40065;49.894;10.358;2023-02-02T08:11:52;5.72;;;3.65;;
54157;SDS011;40065;49.894;10.358;2023-02-02T08:16:54;5.18;;;3.05;;
54157;SDS011;40065;49.894;10.358;2023-02-02T08:21:56;4.63;;;2.97;;
54157;SDS011;40065;49.894;10.358;2023-02-02T08:26:57;5.88;;;3.20;;
54157;SDS011;40065;49.894;10.358;2023-02-02T08:31:59;5.47;;;2.80;;
54157;SDS011;40065;49.894;10.358;2023-02-02T08:37:02;9.00;;;4.22;;
54157;SDS011;40065;49.894;10.358;2023-02-02T08:42:04;4.88;;;2.97;;
54157;SDS011;40065;49.894;10.358;2023-02-02T08:47:07;7.78;;;3.80;;
54157;SDS011;40065;49.894;10.358;2023-02-02T08:52:09;8.02;;;3.45;;
54157;SDS011;40065;49.894;10.358;2023-02-02T08:57:11;25.75;;;13.18;;
54157;SDS011;40065;49.894;10.358;2023-02-02T09:02:13;7.25;;;4.10;;
54157;SDS011;40065;49.894;10.358;2023-02-02T09:07:15;4.03;;;2.75;;
54157;SDS011;40065;49.894;10.358;2023-02-02T09:12:17;5.60;;;2.88;;
54157;SDS011;40065;49.894;10.358;2023-02-02T09:17:19;4.45;;;2.60;;
54157;SDS011;40065;49.894;10.358;2023-02-02T09:22:21;5.05;;;2.95;;
54157;SDS011;40065;49.894;10.358;2023-02-02T09:27:23;8.43;;;3.20;;
54157;SDS011;40065;49.894;10.358;2023-02-02T09:32:28;8.68;;;5.22;;
54157;SDS011;40065;49.894;10.358;2023-02-02T09:37:32;9.98;;;4.82;;
54157;SDS011;40065;49.894;10.358;2023-02-02T09:42:48;10.15;;;4.05;;
54157;SDS011;40065;49.894;10.358;2023-02-02T09:48:11;9.90;;;4.90;;
54157;SDS011;40065;49.894;10.358;2023-02-02T09:53:49;13.18;;;4.57;;
54157;SDS011;40065;49.894;10.358;2023-02-02T09:59:06;12.35;;;4.63;;
54157;SDS011;40065;49.894;10.358;2023-02-02T10:04:32;14.88;;;3.42;;
54157;SDS011;40065;49.894;10.358;2023-02-02T10:09:45;14.05;;;3.40;;
54157;SDS011;40065;49.894;10.358;2023-02-02T10:25:54;9.45;;;3.20;;
54157;SDS011;40065;49.894;10.358;2023-02-02T10:30:59;10.80;;;3.00;;
54157;SDS011;40065;49.894;10.358;2023-02-02T10:36:09;9.18;;;2.60;;
54157;SDS011;40065;49.894;10.358;2023-02-02T10:41:38;6.63;;;2.75;;
54157;SDS011;40065;49.894;10.358;2023-02-02T10:46:54;6.72;;;2.58;;
54157;SDS011;40065;49.894;10.358;2023-02-02T10:57:07;7.35;;;2.05;;
54157;SDS011;40065;49.894;10.358;2023-02-02T11:02:11;6.05;;;2.03;;
54157;SDS011;40065;49.894;10.358;2023-02-02T11:07:21;6.38;;;2.03;;
54157;SDS011;40065;49.894;10.358;2023-02-02T11:12:33;7.53;;;2.05;;
54157;SDS011;40065;49.894;10.358;2023-02-02T11:17:37;5.57;;;1.85;;
54157;SDS011;40065;49.894;10.358;2023-02-02T11:22:39;5.90;;;2.47;;
54157;SDS011;40065;49.894;10.358;2023-02-02T11:27:41;7.55;;;2.63;;
54157;SDS011;40065;49.894;10.358;2023-02-02T11:32:43;5.57;;;1.92;;
54157;SDS011;40065;49.894;10.358;2023-02-02T11:37:58;6.10;;;1.90;;
54157;SDS011;40065;49.894;10.358;2023-02-02T11:48:37;6.55;;;1.58;;
54157;SDS011;40065;49.894;10.358;2023-02-02T12:03:49;5.13;;;1.60;;
54157;SDS011;40065;49.894;10.358;2023-02-02T12:08:54;7.22;;;1.83;;
54157;SDS011;40065;49.894;10.358;2023-02-02T12:35:48;5.27;;;1.90;;
54157;SDS011;40065;49.894;10.358;2023-02-02T13:07:46;5.53;;;1.40;;
54157;SDS011;40065;49.894;10.358;2023-02-02T13:13:00;5.85;;;1.85;;
54157;SDS011;40065;49.894;10.358;2023-02-02T13:18:17;4.90;;;1.30;;
54157;SDS011;40065;49.894;10.358;2023-02-02T13:23:27;6.75;;;1.50;;
54157;SDS011;40065;49.894;10.358;2023-02-02T13:39:33;8.75;;;1.70;;
54157;SDS011;40065;49.894;10.358;2023-02-02T13:44:40;7.50;;;2.00;;
54157;SDS011;40065;49.894;10.358;2023-02-02T13:49:51;5.70;;;1.90;;
54157;SDS011;40065;49.894;10.358;2023-02-02T14:10:36;3.22;;;1.40;;
54157;SDS011;40065;49.894;10.358;2023-02-02T14:15:42;3.30;;;1.60;;
54157;SDS011;40065;49.894;10.358;2023-02-02T14:20:47;4.43;;;2.37;;
54157;SDS011;40065;49.894;10.358;2023-02-02T14:26:02;4.32;;;2.20;;
54157;SDS011;40065;49.894;10.358;2023-02-02T14:31:26;5.10;;;2.47;;
54157;SDS011;40065;49.894;10.358;2023-02-02T14:36:31;5.57;;;2.90;;
54157;SDS011;40065;49.894;10.358;2023-02-02T14:41:42;4.65;;;2.90;;
54157;SDS011;40065;49.894;10.358;2023-02-02T14:52:42;5.20;;;3.17;;
54157;SDS011;40065;49.894;10.358;2023-02-02T14:57:51;6.90;;;3.58;;
54157;SDS011;40065;49.894;10.358;2023-02-02T15:02:55;4.32;;;2.72;;
54157;SDS011;40065;49.894;10.358;2023-02-02T15:08:24;7.05;;;4.18;;
54157;SDS011;40065;49.894;10.358;2023-02-02T15:13:30;8.07;;;4.70;;
54157;SDS011;40065;49.894;10.358;2023-02-02T15:18:43;6.55;;;3.50;;
54157;SDS011;40065;49.894;10.358;2023-02-02T15:23:49;5.93;;;3.20;;
54157;SDS011;40065;49.894;10.358;2023-02-02T15:28:58;6.28;;;3.17;;
54157;SDS011;40065;49.894;10.358;2023-02-02T15:34:08;7.70;;;4.45;;
54157;SDS011;40065;49.894;10.358;2023-02-02T15:39:25;5.72;;;3.90;;
54157;SDS011;40065;49.894;10.358;2023-02-02T15:44:31;4.05;;;2.53;;
54157;SDS011;40065;49.894;10.358;2023-02-02T15:49:40;6.82;;;3.92;;
54157;SDS011;40065;49.894;10.358;2023-02-02T15:54:47;14.50;;;7.55;;
54157;SDS011;40065;49.894;10.358;2023-02-02T15:59:54;7.63;;;4.78;;
54157;SDS011;40065;49.894;10.358;2023-02-02T16:04:56;5.53;;;3.95;;
54157;SDS011;40065;49.894;10.358;2023-02-02T16:10:03;6.75;;;4.13;;
54157;SDS011;40065;49.894;10.358;2023-02-02T16:15:09;6.80;;;3.38;;
54157;SDS011;40065;49.894;10.358;2023-02-02T16:20:20;5.68;;;3.05;;
54157;SDS011;40065;49.894;10.358;2023-02-02T16:25:22;7.20;;;2.60;;
54157;SDS011;40065;49.894;10.358;2023-02-02T16:30:27;8.27;;;4.35;;
54157;SDS011;40065;49.894;10.358;2023-02-02T16:35:32;8.52;;;5.15;;
54157;SDS011;40065;49.894;10.358;2023-02-02T16:40:36;11.45;;;6.97;;
54157;SDS011;40065;49.894;10.358;2023-02-02T16:45:41;5.88;;;3.70;;
54157;SDS011;40065;49.894;10.358;2023-02-02T16:56:29;4.90;;;2.80;;
54157;SDS011;40065;49.894;10.358;2023-02-02T17:01:56;5.30;;;3.42;;
54157;SDS011;40065;49.894;10.358;2023-02-02T17:07:06;12.00;;;8.13;;
54157;SDS011;40065;49.894;10.358;2023-02-02T17:17:35;16.25;;;8.10;;
54157;SDS011;40065;49.894;10.358;2023-02-02T17:22:38;10.77;;;6.70;;
54157;SDS011;40065;49.894;10.358;2023-02-02T17:27:42;9.02;;;5.10;;
54157;SDS011;40065;49.894;10.358;2023-02-02T17:32:45;6.68;;;4.30;;
54157;SDS011;40065;49.894;10.358;2023-02-02T17:37:47;10.18;;;5.75;;
54157;SDS011;40065;49.894;10.358;2023-02-02T17:42:52;52.25;;;17.70;;
54157;SDS011;40065;49.894;10.358;2023-02-02T17:47:54;24.98;;;11.05;;
54157;SDS011;40065;49.894;10.358;2023-02-02T17:58:27;23.08;;;11.95;;
54157;SDS011;40065;49.894;10.358;2023-02-02T18:03:29;15.32;;;9.07;;
54157;SDS011;40065;49.894;10.358;2023-02-02T18:08:37;12.23;;;8.07;;
54157;SDS011;40065;49.894;10.358;2023-02-02T18:13:40;16.88;;;10.18;;
54157;SDS011;40065;49.894;10.358;2023-02-02T18:18:45;13.77;;;8.98;;
54157;SDS011;40065;49.894;10.358;2023-02-02T18:23:47;17.38;;;9.48;;
54157;SDS011;40065;49.894;10.358;2023-02-02T18:28:49;11.45;;;7.47;;
54157;SDS011;40065;49.894;10.358;2023-02-02T18:33:51;9.27;;;6.63;;
54157;SDS011;40065;49.894;10.358;2023-02-02T18:38:54;13.65;;;8.30;;
54157;SDS011;40065;49.894;10.358;2023-02-02T18:43:58;16.23;;;9.95;;
54157;SDS011;40065;49.894;10.358;2023-02-02T18:49:00;14.18;;;8.38;;
54157;SDS011;40065;49.894;10.358;2023-02-02T18:54:03;16.17;;;8.93;;
54157;SDS011;40065;49.894;10.358;2023-02-02T18:59:05;15.25;;;9.10;;
54157;SDS011;40065;49.894;10.358;2023-02-02T19:04:07;18.92;;;10.90;;
54157;SDS011;40065;49.894;10.358;2023-02-02T19:09:09;9.98;;;7.38;;
54157;SDS011;40065;49.894;10.358;2023-02-02T19:24:27;12.50;;;7.82;;
54157;SDS011;40065;49.894;10.358;2023-02-02T19:29:36;15.05;;;7.45;;
54157;SDS011;40065;49.894;10.358;2023-02-02T19:34:38;15.13;;;7.47;;
54157;SDS011;40065;49.894;10.358;2023-02-02T19:39:41;13.52;;;7.43;;
54157;SDS011;40065;49.894;10.358;2023-02-02T19:44:44;13.50;;;5.47;;
54157;SDS011;40065;49.894;10.358;2023-02-02T19:49:46;8.80;;;4.50;;
54157;SDS011;40065;49.894;10.358;2023-02-02T19:54:48;12.35;;;5.38;;
54157;SDS011;40065;49.894;10.358;2023-02-02T19:59:50;14.60;;;4.90;;
54157;SDS011;40065;49.894;10.358;2023-02-02T20:10:26;16.80;;;6.90;;
54157;SDS011;40065;49.894;10.358;2023-02-02T20:15:35;10.82;;;4.68;;
54157;SDS011;40065;49.894;10.358;2023-02-02T20:20:40;12.73;;;4.30;;
54157;SDS011;40065;49.894;10.358;2023-02-02T20:25:44;7.93;;;3.53;;
54157;SDS011;40065;49.894;10.358;2023-02-02T20:30:46;10.75;;;3.38;;
54157;SDS011;40065;49.894;10.358;2023-02-02T20:35:49;8.80;;;3.13;;
54157;SDS011;40065;49.894;10.358;2023-02-02T20:40:51;11.05;;;3.17;;
54157;SDS011;40065;49.894;10.358;2023-02-02T20:45:53;10.90;;;3.60;;
54157;SDS011;40065;49.894;10.358;2023-02-02T20:50:54;7.50;;;3.20;;
54157;SDS011;40065;49.894;10.358;2023-02-02T20:55:56;11.38;;;3.70;;
54157;SDS011;40065;49.894;10.358;2023-02-02T21:01:00;9.33;;;3.20;;
54157;SDS011;40065;49.894;10.358;2023-02-02T21:06:06;8.77;;;2.70;;
54157;SDS011;40065;49.894;10.358;2023-02-02T21:11:08;8.85;;;2.72;;
54157;SDS011;40065;49.894;10.358;2023-02-02T21:16:10;5.97;;;2.53;;
54157;SDS011;40065;49.894;10.358;2023-02-02T21:21:12;8.25;;;2.10;;
54157;SDS011;40065;49.894;10.358;2023-02-02T21:26:17;6.70;;;2.50;;
54157;SDS011;40065;49.894;10.358;2023-02-02T21:31:22;14.98;;;3.13;;
54157;SDS011;40065;49.894;10.358;2023-02-02T21:41:30;12.52;;;4.15;;
54157;SDS011;40065;49.894;10.358;2023-02-02T21:46:34;6.67;;;3.30;;
54157;SDS011;40065;49.894;10.358;2023-02-02T21:51:38;8.65;;;3.75;;
54157;SDS011;40065;49.894;10.358;2023-02-02T21:56:40;4.97;;;2.30;;
54157;SDS011;40065;49.894;10.358;2023-02-02T22:01:42;7.28;;;2.35;;
54157;SDS011;40065;49.894;10.358;2023-02-02T22:06:46;6.10;;;3.08;;
54157;SDS011;40065;49.894;10.358;2023-02-02T22:11:56;6.00;;;2.60;;
54157;SDS011;40065;49.894;10.358;2023-02-02T22:17:01;10.60;;;3.30;;
54157;SDS011;40065;49.894;10.358;2023-02-02T22:22:24;7.20;;;3.28;;
54157;SDS011;40065;49.894;10.358;2023-02-02T22:27:45;9.90;;;3.55;;
54157;SDS011;40065;49.894;10.358;2023-02-02T22:32:51;8.95;;;3.70;;
54157;SDS011;40065;49.894;10.358;2023-02-02T22:37:53;10.65;;;4.03;;
54157;SDS011;40065;49.894;10.358;2023-02-02T22:42:56;7.97;;;3.90;;
54157;SDS011;40065;49.894;10.358;2023-02-02T22:53:02;11.75;;;4.55;;
54157;SDS011;40065;49.894;10.358;2023-02-02T22:58:05;9.25;;;4.53;;
54157;SDS011;40065;49.894;10.358;2023-02-02T23:03:06;8.55;;;4.10;;
54157;SDS011;40065;49.894;10.358;2023-02-02T23:08:09;9.77;;;4.53;;
54157;SDS011;40065;49.894;10.358;2023-02-02T23:13:11;8.05;;;4.20;;
54157;SDS011;40065;49.894;10.358;2023-02-02T23:18:12;10.35;;;4.85;;
54157;SDS011;40065;49.894;10.358;2023-02-02T23:23:14;9.25;;;5.13;;
54157;SDS011;40065;49.894;10.358;2023-02-02T23:28:18;8.95;;;4.72;;
54157;SDS011;40065;49.894;10.358;2023-02-02T23:33:20;9.15;;;5.18;;
54157;SDS011;40065;49.894;10.358;2023-02-02T23:38:21;8.60;;;4.82;;
54157;SDS011;40065;49.894;10.358;2023-02-02T23:43:23;11.45;;;5.28;;
54157;SDS011;40065;49.894;10.358;2023-02-02T23:48:25;9.65;;;5.47;;
54157;SDS011;40065;49.894;10.358;2023-02-02T23:53:27;10.63;;;5.35;;
54157;SDS011;40065;49.894;10.358;2023-02-02T23:58:29;9.10;;;5.72;;
